Time;durP1;ratioP1;P1;durP2;ratioP2;P2;SDS_P1;SDS_P2;PMS_P1;PMS_P2;Temp;Humidity;BMP_temperature;BMP_pressure;BME280_temperature;BME280_humidity;BME280_pressure;Samples;Min_cycle;Max_cycle;Signal;HPM_P1;HPM_P2
2022/02/19 00:01:04;;;;;;;20.57;5.03;;;6.90;99.90;;;;;;6201699;23;20170;-75
2022/02/19 00:03:31;;;;;;;19.30;4.93;;;6.90;99.90;;;;;;6203158;23;20193;-73
2022/02/19 00:05:58;;;;;;;21.30;6.00;;;6.90;99.90;;;;;;6202516;23;20198;-74
2022/02/19 00:08:24;;;;;;;22.57;6.10;;;6.90;99.90;;;;;;6203817;23;20185;-77
2022/02/19 00:10:51;;;;;;;22.53;5.50;;;6.90;99.90;;;;;;6204581;23;20259;-74
2022/02/19 00:13:19;;;;;;;17.97;4.27;;;6.90;99.90;;;;;;6205181;23;20177;-75
2022/02/19 00:15:47;;;;;;;26.03;5.27;;;6.90;99.90;;;;;;6203688;23;20311;-74
2022/02/19 00:18:13;;;;;;;21.17;4.83;;;6.90;99.90;;;;;;6204406;23;20232;-73
2022/02/19 00:20:40;;;;;;;19.53;3.50;;;6.90;99.90;;;;;;6204070;23;20235;-73
2022/02/19 00:23:07;;;;;;;20.17;4.73;;;6.90;99.90;;;;;;6203519;23;20174;-75
2022/02/19 00:25:33;;;;;;;23.67;4.53;;;6.90;99.90;;;;;;6205248;23;20170;-75
2022/02/19 00:28:00;;;;;;;25.63;4.87;;;6.90;99.90;;;;;;6203597;23;20184;-75
2022/02/19 00:30:28;;;;;;;29.80;6.63;;;6.90;99.90;;;;;;6204385;23;20178;-73
2022/02/19 00:32:55;;;;;;;23.07;5.50;;;6.90;99.90;;;;;;6203804;23;20170;-75
2022/02/19 00:35:22;;;;;;;22.93;4.70;;;6.80;99.90;;;;;;6204437;23;20177;-76
2022/02/19 00:37:49;;;;;;;19.53;4.67;;;6.80;99.90;;;;;;6203316;23;20228;-75
2022/02/19 00:40:16;;;;;;;23.43;6.90;;;6.80;99.90;;;;;;6203628;23;20198;-75
2022/02/19 00:42:42;;;;;;;23.67;4.77;;;6.80;99.90;;;;;;6204250;23;20178;-76
2022/02/19 00:45:10;;;;;;;15.20;3.43;;;6.80;99.90;;;;;;6203129;23;20178;-77
2022/02/19 00:47:38;;;;;;;17.90;4.37;;;6.80;99.90;;;;;;6204508;23;20178;-78
2022/02/19 00:50:06;;;;;;;12.93;3.90;;;6.80;99.90;;;;;;6203315;23;20166;-73
2022/02/19 00:52:32;;;;;;;21.00;3.60;;;6.70;99.90;;;;;;6204316;23;20622;-76
2022/02/19 00:54:59;;;;;;;22.43;3.83;;;6.70;99.90;;;;;;6203321;23;20649;-75
2022/02/19 00:57:26;;;;;;;25.20;6.03;;;6.70;99.90;;;;;;6204454;23;20205;-74
2022/02/19 00:59:53;;;;;;;22.67;5.43;;;6.70;99.90;;;;;;6204511;23;20178;-74
2022/02/19 01:02:19;;;;;;;24.50;5.00;;;6.70;99.90;;;;;;6204313;23;20184;-75
2022/02/19 01:04:48;;;;;;;20.70;4.80;;;6.70;99.90;;;;;;6203328;23;20202;-75
2022/02/19 01:07:14;;;;;;;16.90;3.83;;;6.70;99.90;;;;;;6203707;23;20162;-76
2022/02/19 01:09:41;;;;;;;21.47;4.77;;;6.70;99.90;;;;;;6203170;23;20170;-74
2022/02/19 01:12:09;;;;;;;19.57;4.60;;;6.70;99.90;;;;;;6202738;23;20175;-76
2022/02/19 01:14:35;;;;;;;18.40;4.00;;;6.60;99.90;;;;;;6203663;23;20166;-79
2022/02/19 01:17:02;;;;;;;14.53;3.53;;;6.60;99.90;;;;;;6203842;23;20197;-78
2022/02/19 01:19:29;;;;;;;19.47;3.60;;;6.60;99.90;;;;;;6203553;23;20178;-74
2022/02/19 01:21:58;;;;;;;15.23;3.60;;;6.70;99.90;;;;;;6202998;23;20844;-74
2022/02/19 01:24:25;;;;;;;18.67;4.37;;;6.70;99.90;;;;;;6203473;23;20631;-73
2022/02/19 01:26:52;;;;;;;23.03;4.30;;;6.70;99.90;;;;;;6204049;23;20170;-75
2022/02/19 01:29:19;;;;;;;15.17;3.60;;;6.70;99.90;;;;;;6204396;23;20182;-77
2022/02/19 01:31:46;;;;;;;16.30;4.60;;;6.70;99.90;;;;;;6204772;23;20170;-76
2022/02/19 01:34:12;;;;;;;21.20;4.23;;;6.70;99.90;;;;;;6203713;23;20174;-75
2022/02/19 01:36:39;;;;;;;15.27;4.17;;;6.70;99.90;;;;;;6204031;23;20201;-75
2022/02/19 01:39:07;;;;;;;16.60;3.80;;;6.70;99.90;;;;;;6203773;23;20197;-77
2022/02/19 01:41:34;;;;;;;18.07;3.70;;;6.70;99.90;;;;;;6202612;23;20174;-76
2022/02/19 01:44:05;;;;;;;15.57;3.27;;;6.70;99.90;;;;;;6203603;23;20193;-75
2022/02/19 01:46:32;;;;;;;15.13;4.33;;;6.70;99.90;;;;;;6202873;23;20181;-74
2022/02/19 01:48:59;;;;;;;44.50;5.83;;;6.70;99.90;;;;;;6202299;23;20178;-76
2022/02/19 01:51:30;;;;;;;17.83;4.27;;;6.70;99.90;;;;;;6203569;23;20185;-76
2022/02/19 01:53:57;;;;;;;24.67;5.13;;;6.70;99.90;;;;;;6201930;23;20237;-76
2022/02/19 01:56:25;;;;;;;15.70;4.23;;;6.70;99.90;;;;;;6204275;23;20201;-75
2022/02/19 01:58:53;;;;;;;17.20;4.27;;;6.70;99.90;;;;;;6202944;23;20184;-75
2022/02/19 02:01:20;;;;;;;17.20;3.87;;;6.70;99.90;;;;;;6202698;23;20181;-75
2022/02/19 02:03:47;;;;;;;20.13;4.80;;;6.70;99.90;;;;;;6202815;23;20602;-76
2022/02/19 02:06:14;;;;;;;19.97;4.40;;;6.70;99.90;;;;;;6202888;23;20205;-75
2022/02/19 02:08:41;;;;;;;26.57;4.67;;;6.70;99.90;;;;;;6202637;23;20251;-76
2022/02/19 02:11:08;;;;;;;21.47;4.73;;;6.70;99.90;;;;;;6202160;23;20178;-75
2022/02/19 02:13:37;;;;;;;17.00;4.27;;;6.70;99.90;;;;;;6202716;23;20174;-73
2022/02/19 02:16:04;;;;;;;25.43;4.90;;;6.70;99.90;;;;;;6202605;23;20182;-75
2022/02/19 02:18:30;;;;;;;22.53;4.43;;;6.70;99.90;;;;;;6202425;23;20181;-75
2022/02/19 02:20:57;;;;;;;31.13;5.10;;;6.70;99.90;;;;;;6203523;23;20238;-75
2022/02/19 02:23:25;;;;;;;12.13;3.07;;;6.70;99.90;;;;;;6202370;23;20174;-78
2022/02/19 02:25:53;;;;;;;21.90;4.50;;;6.70;99.90;;;;;;6202319;23;20181;-76
2022/02/19 02:28:20;;;;;;;13.70;5.07;;;6.70;99.90;;;;;;6202638;23;20174;-75
2022/02/19 02:30:47;;;;;;;24.03;4.80;;;6.70;99.90;;;;;;6202014;23;20180;-79
2022/02/19 02:33:16;;;;;;;19.63;4.10;;;6.70;99.90;;;;;;6203196;23;20185;-74
2022/02/19 02:35:42;;;;;;;31.03;5.47;;;6.70;99.90;;;;;;6202531;23;20174;-77
2022/02/19 02:38:09;;;;;;;25.83;5.97;;;6.70;99.90;;;;;;6202727;23;20202;-76
2022/02/19 02:40:37;;;;;;;17.73;3.80;;;6.70;99.90;;;;;;6203317;23;20205;-77
2022/02/19 02:43:04;;;;;;;31.13;6.33;;;6.70;99.90;;;;;;6202259;23;20174;-75
2022/02/19 02:45:32;;;;;;;28.77;5.53;;;6.70;99.90;;;;;;6203965;23;20182;-75
2022/02/19 02:47:58;;;;;;;23.80;5.30;;;6.70;99.90;;;;;;6202004;23;20170;-76
2022/02/19 02:50:25;;;;;;;24.70;6.73;;;6.60;99.90;;;;;;6203531;23;20178;-75
2022/02/19 02:52:52;;;;;;;22.77;4.70;;;6.60;99.90;;;;;;6203618;23;20182;-76
2022/02/19 02:55:19;;;;;;;24.10;5.77;;;6.60;99.90;;;;;;6202837;23;20209;-76
2022/02/19 02:57:47;;;;;;;21.83;5.00;;;6.70;99.90;;;;;;6202295;23;20201;-75
2022/02/19 03:00:15;;;;;;;19.43;4.43;;;6.70;99.90;;;;;;6202626;23;20490;-75
2022/02/19 03:02:42;;;;;;;20.37;5.33;;;6.60;99.90;;;;;;6202558;23;20279;-74
2022/02/19 03:05:11;;;;;;;21.87;4.70;;;6.60;99.90;;;;;;6202644;23;20206;-76
2022/02/19 03:07:38;;;;;;;22.23;5.33;;;6.60;99.90;;;;;;6203104;23;20174;-75
2022/02/19 03:10:07;;;;;;;20.47;4.70;;;6.60;99.90;;;;;;6203414;23;20174;-76
2022/02/19 03:12:34;;;;;;;18.70;4.90;;;6.60;99.90;;;;;;6202295;23;20282;-76
2022/02/19 03:15:03;;;;;;;17.07;3.90;;;6.60;99.90;;;;;;6203466;23;20174;-76
2022/02/19 03:17:35;;;;;;;25.50;5.00;;;6.60;99.90;;;;;;6203412;23;20512;-78
2022/02/19 03:20:02;;;;;;;24.47;4.23;;;6.60;99.90;;;;;;6201606;23;20165;-76
2022/02/19 03:22:28;;;;;;;22.97;4.40;;;6.60;99.90;;;;;;6203523;23;20185;-76
2022/02/19 03:24:55;;;;;;;17.17;4.13;;;6.60;99.90;;;;;;6202732;23;20174;-73
2022/02/19 03:27:23;;;;;;;18.37;3.30;;;6.60;99.90;;;;;;6202638;23;20521;-74
2022/02/19 03:29:50;;;;;;;11.83;3.60;;;6.60;99.90;;;;;;6203086;23;20303;-77
2022/02/19 03:32:18;;;;;;;10.63;2.70;;;6.50;99.90;;;;;;6202666;23;20170;-78
2022/02/19 03:34:45;;;;;;;17.07;4.30;;;6.50;99.90;;;;;;6202367;23;20182;-75
2022/02/19 03:37:12;;;;;;;19.90;4.60;;;6.50;99.90;;;;;;6202677;23;20197;-75
2022/02/19 03:39:38;;;;;;;21.57;4.07;;;6.50;99.90;;;;;;6201903;23;20193;-75
2022/02/19 03:42:06;;;;;;;24.30;4.40;;;6.50;99.90;;;;;;6203164;23;20173;-76
2022/02/19 03:44:33;;;;;;;15.00;4.23;;;6.50;99.90;;;;;;6204325;23;20174;-74
2022/02/19 03:46:59;;;;;;;21.67;4.20;;;6.50;99.90;;;;;;6203513;23;20344;-74
2022/02/19 03:49:27;;;;;;;17.23;3.70;;;6.50;99.90;;;;;;6204676;23;20170;-74
2022/02/19 03:51:54;;;;;;;14.97;3.83;;;6.50;99.90;;;;;;6204355;23;20185;-76
2022/02/19 03:54:21;;;;;;;19.10;4.57;;;6.40;99.90;;;;;;6203724;23;20173;-75
2022/02/19 03:56:48;;;;;;;19.00;4.67;;;6.40;99.90;;;;;;6204755;23;20194;-76
2022/02/19 03:59:16;;;;;;;14.30;4.97;;;6.40;99.90;;;;;;6203933;23;20181;-76
2022/02/19 04:01:43;;;;;;;19.07;4.53;;;6.40;99.90;;;;;;6199517;23;20269;-73
2022/02/19 04:04:10;;;;;;;15.70;4.00;;;6.40;99.90;;;;;;6201898;23;20169;-75
2022/02/19 04:06:39;;;;;;;18.97;3.80;;;6.40;99.90;;;;;;6204696;23;20441;-75
2022/02/19 04:09:05;;;;;;;15.00;4.13;;;6.40;99.90;;;;;;6204110;23;20701;-74
2022/02/19 04:11:32;;;;;;;18.60;4.80;;;6.40;99.90;;;;;;6205402;23;20634;-74
2022/02/19 04:13:59;;;;;;;14.23;3.97;;;6.50;99.90;;;;;;6203893;23;20180;-76
2022/02/19 04:16:26;;;;;;;11.47;3.07;;;6.50;99.90;;;;;;6204447;23;20181;-76
2022/02/19 04:18:52;;;;;;;25.33;4.97;;;6.50;99.90;;;;;;6204092;23;20198;-75
2022/02/19 04:21:19;;;;;;;17.37;3.70;;;6.50;99.90;;;;;;6204731;23;20181;-74
2022/02/19 04:23:47;;;;;;;12.20;3.17;;;6.50;99.90;;;;;;6204382;23;20170;-76
2022/02/19 04:26:14;;;;;;;16.03;3.70;;;6.50;99.90;;;;;;6203126;23;20178;-75
2022/02/19 04:28:41;;;;;;;20.00;3.57;;;6.50;99.90;;;;;;6204029;23;20177;-76
2022/02/19 04:31:08;;;;;;;14.47;3.70;;;6.50;99.90;;;;;;6204999;23;20174;-76
2022/02/19 04:33:34;;;;;;;24.43;4.17;;;6.50;99.90;;;;;;6204292;23;20868;-75
2022/02/19 04:36:01;;;;;;;16.23;3.20;;;6.50;99.90;;;;;;6203162;23;20173;-75
2022/02/19 04:38:28;;;;;;;23.30;5.30;;;6.50;99.90;;;;;;6205411;23;20198;-74
2022/02/19 04:40:56;;;;;;;20.20;3.30;;;6.50;99.90;;;;;;6204105;23;20439;-75
2022/02/19 04:43:23;;;;;;;14.10;3.33;;;6.50;99.90;;;;;;6204337;23;20874;-74
2022/02/19 04:45:50;;;;;;;15.27;2.73;;;6.50;99.90;;;;;;6204577;23;20178;-75
2022/02/19 04:48:16;;;;;;;18.97;3.67;;;6.50;99.90;;;;;;6204465;23;20171;-74
2022/02/19 04:50:43;;;;;;;19.67;3.80;;;6.50;99.90;;;;;;6204226;23;20181;-76
2022/02/19 04:53:10;;;;;;;20.03;4.20;;;6.50;99.90;;;;;;6203987;23;20185;-76
2022/02/19 04:55:37;;;;;;;13.60;3.80;;;6.50;99.90;;;;;;6204445;23;20178;-74
2022/02/19 04:58:05;;;;;;;15.23;3.30;;;6.50;99.90;;;;;;6203740;23;20237;-75
2022/02/19 05:00:32;;;;;;;15.80;2.93;;;6.50;99.90;;;;;;6204480;23;20181;-75
2022/02/19 05:02:59;;;;;;;18.37;4.33;;;6.50;99.90;;;;;;6202671;23;20239;-75
2022/02/19 05:05:26;;;;;;;17.00;3.93;;;6.50;99.90;;;;;;6203753;23;20213;-76
2022/02/19 05:07:52;;;;;;;16.23;3.70;;;6.50;99.90;;;;;;6204744;23;20170;-72
2022/02/19 05:10:19;;;;;;;15.37;4.20;;;6.50;99.90;;;;;;6204170;23;20178;-75
2022/02/19 05:12:46;;;;;;;20.93;4.33;;;6.50;99.90;;;;;;6204675;23;20216;-76
2022/02/19 05:15:16;;;;;;;19.93;3.73;;;6.50;99.90;;;;;;6203776;23;20170;-75
2022/02/19 05:17:47;;;;;;;21.37;4.47;;;6.50;99.90;;;;;;6203722;23;20206;-75
2022/02/19 05:20:14;;;;;;;19.83;5.47;;;6.60;99.90;;;;;;6203936;23;20185;-76
2022/02/19 05:22:41;;;;;;;16.63;3.27;;;6.60;99.90;;;;;;6204329;23;20185;-75
2022/02/19 05:25:09;;;;;;;14.47;3.30;;;6.60;99.90;;;;;;6202274;23;20182;-74
2022/02/19 05:27:35;;;;;;;15.33;2.97;;;6.60;99.90;;;;;;6204349;23;20209;-75
2022/02/19 05:30:03;;;;;;;18.03;3.97;;;6.60;99.90;;;;;;6203018;23;20182;-77
2022/02/19 05:32:31;;;;;;;18.00;3.77;;;6.60;99.90;;;;;;6203164;23;20456;-77
2022/02/19 05:34:58;;;;;;;17.17;3.87;;;6.60;99.90;;;;;;6203349;23;20177;-76
2022/02/19 05:37:24;;;;;;;15.20;3.73;;;6.60;99.90;;;;;;6204459;23;20205;-76
2022/02/19 05:39:51;;;;;;;14.90;3.60;;;6.50;99.90;;;;;;6202809;23;20201;-75
2022/02/19 05:42:18;;;;;;;17.17;2.83;;;6.50;99.90;;;;;;6204396;23;20178;-76
2022/02/19 05:44:45;;;;;;;17.27;3.50;;;6.50;99.90;;;;;;6204190;23;20177;-76
2022/02/19 05:47:11;;;;;;;20.47;4.63;;;6.60;99.90;;;;;;6202748;23;20178;-74
2022/02/19 05:49:39;;;;;;;13.60;3.80;;;6.60;99.90;;;;;;6204773;23;20174;-75
2022/02/19 05:52:07;;;;;;;11.93;4.07;;;6.60;99.90;;;;;;6203670;23;20205;-74
2022/02/19 05:54:33;;;;;;;12.03;3.27;;;6.60;99.90;;;;;;6203425;23;20185;-75
2022/02/19 05:57:00;;;;;;;20.67;3.97;;;6.60;99.90;;;;;;6203096;23;20559;-76
2022/02/19 05:59:27;;;;;;;17.80;3.50;;;6.60;99.90;;;;;;6203884;23;20238;-75
2022/02/19 06:01:54;;;;;;;16.30;2.80;;;6.60;99.90;;;;;;6203302;23;20178;-75
2022/02/19 06:04:20;;;;;;;15.60;3.13;;;6.60;99.90;;;;;;6202968;23;20383;-76
2022/02/19 06:06:48;;;;;;;18.93;4.67;;;6.60;99.90;;;;;;6202760;23;20202;-76
2022/02/19 06:09:15;;;;;;;18.67;5.20;;;6.60;99.90;;;;;;6203113;23;20170;-78
2022/02/19 06:11:42;;;;;;;14.10;4.27;;;6.60;99.90;;;;;;6203418;23;20197;-76
2022/02/19 06:14:09;;;;;;;18.23;3.87;;;6.50;99.90;;;;;;6203152;23;20209;-76
2022/02/19 06:16:36;;;;;;;12.07;3.70;;;6.60;99.90;;;;;;6204337;23;20261;-75
2022/02/19 06:19:02;;;;;;;10.37;3.10;;;6.60;99.90;;;;;;6202776;23;20206;-74
2022/02/19 06:21:30;;;;;;;17.70;4.40;;;6.60;99.90;;;;;;6202555;23;20185;-77
2022/02/19 06:23:58;;;;;;;17.03;3.90;;;6.60;99.90;;;;;;6203596;23;20185;-76
2022/02/19 06:26:24;;;;;;;13.23;2.87;;;6.60;99.90;;;;;;6203912;23;20178;-76
2022/02/19 06:28:51;;;;;;;17.33;4.00;;;6.60;99.90;;;;;;6203364;23;20174;-75
2022/02/19 06:31:18;;;;;;;23.40;3.70;;;6.50;99.90;;;;;;6202880;23;20531;-75
2022/02/19 06:33:45;;;;;;;15.27;3.00;;;6.50;99.90;;;;;;6202990;23;20571;-75
2022/02/19 06:36:11;;;;;;;15.70;3.40;;;6.50;99.90;;;;;;6202459;23;20178;-75
2022/02/19 06:38:41;;;;;;;17.13;3.67;;;6.50;99.90;;;;;;6203977;23;20194;-75
2022/02/19 06:41:10;;;;;;;17.53;4.13;;;6.50;99.90;;;;;;6203412;23;20185;-74
2022/02/19 06:43:37;;;;;;;24.27;3.87;;;6.60;99.90;;;;;;6202770;23;20174;-74
2022/02/19 06:46:04;;;;;;;20.63;4.80;;;6.60;99.90;;;;;;6203134;23;20185;-76
2022/02/19 06:48:32;;;;;;;16.17;3.80;;;6.60;99.90;;;;;;6203741;23;20260;-75
2022/02/19 06:50:59;;;;;;;13.67;3.30;;;6.50;99.90;;;;;;6202705;23;20178;-75
2022/02/19 06:53:26;;;;;;;18.73;3.00;;;6.50;99.90;;;;;;6201581;23;20166;-75
2022/02/19 06:55:53;;;;;;;20.17;4.87;;;6.60;99.90;;;;;;6202550;23;20174;-73
2022/02/19 06:58:22;;;;;;;19.10;3.93;;;6.60;99.90;;;;;;6202339;23;20201;-76
2022/02/19 07:00:51;;;;;;;20.97;5.13;;;6.60;99.90;;;;;;6202891;23;20174;-76
2022/02/19 07:03:19;;;;;;;16.30;3.53;;;6.60;99.90;;;;;;6201401;23;20837;-76
2022/02/19 07:05:46;;;;;;;20.70;4.73;;;6.70;99.90;;;;;;6202683;23;20245;-75
2022/02/19 07:08:12;;;;;;;16.53;4.30;;;6.70;99.90;;;;;;6203379;23;20589;-76
2022/02/19 07:10:39;;;;;;;22.80;5.37;;;6.70;99.90;;;;;;6202925;23;20194;-76
2022/02/19 07:13:06;;;;;;;16.20;4.13;;;6.70;99.90;;;;;;6202618;23;20252;-75
2022/02/19 07:15:34;;;;;;;14.37;3.20;;;6.60;99.90;;;;;;6203475;23;20522;-74
2022/02/19 07:18:01;;;;;;;17.17;4.67;;;6.60;99.90;;;;;;6203061;23;20194;-74
2022/02/19 07:20:28;;;;;;;13.30;4.37;;;6.60;99.90;;;;;;6204714;23;20233;-75
2022/02/19 07:22:55;;;;;;;14.03;3.80;;;6.60;99.90;;;;;;6205335;23;20193;-74
2022/02/19 07:25:22;;;;;;;15.47;3.90;;;6.60;99.90;;;;;;6203419;23;20757;-74
2022/02/19 07:27:49;;;;;;;15.60;3.13;;;6.60;99.90;;;;;;6204870;23;20570;-75
2022/02/19 07:30:18;;;;;;;19.60;3.97;;;6.60;99.90;;;;;;6204926;23;20174;-76
2022/02/19 07:32:48;;;;;;;17.87;3.10;;;6.60;99.90;;;;;;6204376;23;20178;-75
2022/02/19 07:35:15;;;;;;;16.20;4.20;;;6.60;99.90;;;;;;6204452;23;20489;-75
2022/02/19 07:37:42;;;;;;;11.97;3.07;;;6.60;99.90;;;;;;6204738;23;20170;-75
2022/02/19 07:40:09;;;;;;;19.70;3.20;;;6.60;99.90;;;;;;6205033;23;20217;-75
2022/02/19 07:42:37;;;;;;;14.93;3.90;;;6.60;99.90;;;;;;6205678;23;20185;-74
2022/02/19 07:45:05;;;;;;;19.10;4.57;;;6.60;99.90;;;;;;6204490;23;20175;-74
2022/02/19 07:47:34;;;;;;;23.13;4.13;;;6.60;99.90;;;;;;6205377;23;20204;-76
2022/02/19 07:58:19;;;;;;;18.13;3.73;;;6.70;99.90;;;;;;6204520;23;20196;-76
2022/02/19 08:00:47;;;;;;;17.80;4.57;;;6.70;99.90;;;;;;6203576;23;20175;-76
2022/02/19 08:03:14;;;;;;;13.53;2.97;;;6.70;99.90;;;;;;6204202;23;20166;-76
2022/02/19 08:05:43;;;;;;;11.10;3.47;;;6.70;99.90;;;;;;6204631;23;20210;-75
2022/02/19 08:08:10;;;;;;;15.70;3.47;;;6.70;99.90;;;;;;6203648;23;20177;-75
2022/02/19 08:10:38;;;;;;;13.70;2.90;;;6.70;99.90;;;;;;6204784;23;20172;-75
2022/02/19 08:13:07;;;;;;;23.07;4.87;;;6.60;99.90;;;;;;6164301;23;20491;-77
2022/02/19 08:15:34;;;;;;;20.67;4.23;;;6.70;99.90;;;;;;6204402;23;20189;-76
2022/02/19 08:18:01;;;;;;;22.30;4.53;;;6.70;99.90;;;;;;6204355;23;20197;-76
2022/02/19 08:20:28;;;;;;;13.00;3.37;;;6.70;99.90;;;;;;6203657;23;20567;-77
2022/02/19 08:22:56;;;;;;;13.23;3.47;;;6.70;99.90;;;;;;6204870;23;20182;-74
2022/02/19 08:25:23;;;;;;;17.40;3.73;;;6.80;99.90;;;;;;6204040;23;20178;-75
2022/02/19 08:27:50;;;;;;;20.37;4.90;;;6.80;99.90;;;;;;6203647;23;20452;-76
2022/02/19 08:44:01;;;;;;;13.03;3.30;;;7.10;99.90;;;;;;6104641;23;20328;-74
2022/02/19 08:46:28;;;;;;;15.37;3.57;;;7.10;99.90;;;;;;6204286;23;20170;-76
2022/02/19 08:48:55;;;;;;;13.90;3.20;;;7.10;99.90;;;;;;6202949;23;20177;-75
2022/02/19 08:51:22;;;;;;;17.20;3.57;;;7.10;99.90;;;;;;6204560;23;20174;-75
2022/02/19 08:53:49;;;;;;;12.60;3.40;;;7.10;99.90;;;;;;6204130;23;20174;-74
2022/02/19 08:56:16;;;;;;;26.00;4.70;;;7.10;99.90;;;;;;6203500;23;20182;-74
2022/02/19 08:58:42;;;;;;;11.83;3.30;;;7.20;99.90;;;;;;6203679;23;20198;-75
2022/02/19 09:01:10;;;;;;;16.67;3.47;;;7.20;99.90;;;;;;6204502;23;20181;-75
2022/02/19 09:03:37;;;;;;;13.47;3.13;;;7.20;99.90;;;;;;6203197;23;20178;-75
2022/02/19 09:06:04;;;;;;;16.87;3.30;;;7.20;99.90;;;;;;6203274;23;20920;-75
2022/02/19 09:08:31;;;;;;;12.37;3.97;;;7.20;99.90;;;;;;6203771;23;20617;-74
2022/02/19 09:10:58;;;;;;;12.97;3.73;;;7.30;99.90;;;;;;6203401;23;20725;-75
2022/02/19 09:13:25;;;;;;;16.20;3.10;;;7.30;99.90;;;;;;6204084;23;20170;-76
2022/02/19 09:15:51;;;;;;;14.17;4.17;;;7.30;99.90;;;;;;6203692;23;20178;-74
2022/02/19 09:18:20;;;;;;;14.83;4.20;;;7.30;99.90;;;;;;6203659;23;20178;-75
2022/02/19 09:20:46;;;;;;;12.63;3.93;;;7.40;99.90;;;;;;6204532;23;20201;-75
2022/02/19 09:23:14;;;;;;;10.00;3.10;;;7.40;99.90;;;;;;6204307;23;20202;-76
2022/02/19 09:25:40;;;;;;;12.90;3.27;;;7.40;99.90;;;;;;6203421;23;20174;-74
2022/02/19 09:28:07;;;;;;;17.53;3.90;;;7.40;99.90;;;;;;6203047;23;20610;-75
2022/02/19 09:30:34;;;;;;;12.27;2.67;;;7.40;99.90;;;;;;6202840;23;20178;-75
2022/02/19 09:33:02;;;;;;;22.60;3.43;;;7.40;99.90;;;;;;6203884;23;20208;-75
2022/02/19 09:35:31;;;;;;;10.50;2.70;;;7.40;99.90;;;;;;6203169;23;20222;-76
2022/02/19 09:37:58;;;;;;;13.20;3.00;;;7.50;99.90;;;;;;6202126;23;20174;-76
2022/02/19 09:40:25;;;;;;;13.10;2.90;;;7.50;99.90;;;;;;6203597;23;20206;-75
2022/02/19 09:42:51;;;;;;;17.30;3.93;;;7.50;99.90;;;;;;6203562;23;20181;-77
2022/02/19 09:45:18;;;;;;;16.10;3.17;;;7.50;99.90;;;;;;6202789;23;20174;-75
2022/02/19 09:47:45;;;;;;;12.67;4.00;;;7.60;99.90;;;;;;6203389;23;20180;-74
2022/02/19 09:50:13;;;;;;;16.00;4.00;;;7.70;99.90;;;;;;6203399;23;20583;-75
2022/02/19 09:52:41;;;;;;;13.20;3.33;;;7.80;99.90;;;;;;6202025;23;20594;-75
2022/02/19 09:55:08;;;;;;;8.87;4.33;;;7.80;99.90;;;;;;6203894;23;20166;-75
2022/02/19 09:57:35;;;;;;;12.57;3.37;;;7.90;99.90;;;;;;6203448;23;20178;-75
2022/02/19 10:00:02;;;;;;;15.07;3.37;;;8.00;99.90;;;;;;6203040;23;20286;-73
2022/02/19 10:02:31;;;;;;;17.17;3.33;;;8.00;99.90;;;;;;6204382;23;20174;-75
2022/02/19 10:05:10;;;;;;;10.80;3.07;;;8.10;99.90;;;;;;6203180;23;20637;-75
2022/02/19 10:07:37;;;;;;;16.73;3.37;;;8.20;99.90;;;;;;6203255;23;20170;-75
2022/02/19 10:10:06;;;;;;;18.20;3.93;;;8.30;99.90;;;;;;6202555;23;20177;-76
2022/02/19 10:12:48;;;;;;;18.23;4.77;;;8.40;99.90;;;;;;6202947;23;20215;-76
2022/02/19 10:15:15;;;;;;;12.33;3.37;;;8.40;99.90;;;;;;6199049;23;20178;-74
2022/02/19 10:17:41;;;;;;;13.03;3.83;;;8.30;99.90;;;;;;6203223;23;20855;-75
2022/02/19 10:20:14;;;;;;;16.60;3.37;;;8.30;99.90;;;;;;6203246;23;20208;-75
2022/02/19 10:22:43;;;;;;;14.63;3.27;;;8.30;99.90;;;;;;6202974;23;20431;-76
2022/02/19 10:25:14;;;;;;;16.07;4.43;;;8.30;99.90;;;;;;6203658;23;20564;-75
2022/02/19 10:27:46;;;;;;;14.47;4.10;;;8.40;99.90;;;;;;6202180;23;20225;-74
2022/02/19 10:30:14;;;;;;;14.27;3.83;;;8.60;99.90;;;;;;6202407;23;20810;-75
2022/02/19 10:32:49;;;;;;;12.67;3.10;;;8.60;99.90;;;;;;6203308;23;20181;-75
2022/02/19 10:35:16;;;;;;;12.90;3.53;;;8.60;99.90;;;;;;6202069;23;20181;-75
2022/02/19 10:37:44;;;;;;;12.33;2.80;;;8.60;99.90;;;;;;6202981;23;20178;-74
2022/02/19 10:40:32;;;;;;;12.77;3.33;;;8.50;99.90;;;;;;6203198;23;20204;-75
2022/02/19 10:43:02;;;;;;;16.77;3.30;;;8.50;99.90;;;;;;6202381;23;20170;-75
2022/02/19 10:45:29;;;;;;;15.10;3.90;;;8.40;99.90;;;;;;6203466;23;20181;-75
2022/02/19 10:48:12;;;;;;;18.73;4.40;;;8.40;99.90;;;;;;6202384;23;20182;-76
2022/02/19 10:50:39;;;;;;;16.07;4.07;;;8.60;99.90;;;;;;6204094;23;20169;-76
2022/02/19 10:53:06;;;;;;;13.23;3.60;;;8.80;99.90;;;;;;6203112;23;20258;-77
2022/02/19 10:55:36;;;;;;;26.60;4.67;;;8.80;99.90;;;;;;6202197;23;20178;-75
2022/02/19 10:58:06;;;;;;;20.83;4.93;;;8.90;99.90;;;;;;6202172;23;20174;-75
2022/02/19 11:00:35;;;;;;;16.47;4.47;;;9.00;99.90;;;;;;6202966;23;20838;-75
2022/02/19 11:03:04;;;;;;;14.90;3.73;;;9.00;99.90;;;;;;6202370;23;20177;-75
2022/02/19 11:05:32;;;;;;;16.80;4.87;;;9.10;99.90;;;;;;6203122;23;20210;-77
2022/02/19 11:08:01;;;;;;;14.03;4.17;;;9.10;99.90;;;;;;6202815;23;20177;-77
2022/02/19 11:10:28;;;;;;;15.80;4.47;;;9.20;99.90;;;;;;6202536;23;20249;-76
2022/02/19 11:12:57;;;;;;;15.07;4.17;;;9.30;99.90;;;;;;6203301;23;20193;-74
2022/02/19 11:15:25;;;;;;;11.63;4.00;;;9.40;99.90;;;;;;6203398;23;20178;-75
2022/02/19 11:17:53;;;;;;;15.80;4.57;;;9.50;99.90;;;;;;6202181;23;20174;-75
2022/02/19 11:20:22;;;;;;;18.50;4.37;;;9.60;99.90;;;;;;6202613;23;20201;-75
2022/02/19 11:22:49;;;;;;;20.20;5.00;;;9.50;99.90;;;;;;6202381;23;20177;-74
2022/02/19 11:25:19;;;;;;;13.83;4.27;;;9.60;99.90;;;;;;6202439;23;20598;-75
2022/02/19 11:27:49;;;;;;;16.50;4.57;;;9.80;99.90;;;;;;6203523;23;20232;-76
2022/02/19 11:30:17;;;;;;;15.77;4.30;;;9.80;99.90;;;;;;6203331;23;20367;-76
2022/02/19 11:32:45;;;;;;;11.40;4.37;;;9.90;99.90;;;;;;6202504;23;20185;-75
2022/02/19 11:35:12;;;;;;;16.83;4.37;;;9.90;99.90;;;;;;6202798;23;20911;-77
2022/02/19 11:37:42;;;;;;;15.57;3.90;;;9.90;99.90;;;;;;6202459;23;20762;-77
2022/02/19 11:40:12;;;;;;;15.77;3.43;;;10.00;99.90;;;;;;6203113;23;20202;-76
2022/02/19 11:42:44;;;;;;;18.37;4.17;;;10.00;99.90;;;;;;6202604;23;20185;-75
2022/02/19 11:45:25;;;;;;;13.10;3.50;;;10.00;99.90;;;;;;6202316;23;20185;-76
2022/02/19 11:47:54;;;;;;;10.40;3.37;;;10.00;99.90;;;;;;6202593;23;20174;-75
2022/02/19 11:50:25;;;;;;;19.93;5.03;;;9.90;99.90;;;;;;6203248;23;20183;-77
2022/02/19 11:53:24;;;;;;;23.00;5.67;;;9.80;99.90;;;;;;6202358;23;20174;-76
2022/02/19 11:55:52;;;;;;;17.67;4.30;;;9.80;99.90;;;;;;6202819;23;20173;-76
2022/02/19 11:58:22;;;;;;;17.20;3.77;;;9.80;99.90;;;;;;6201803;23;20205;-75
2022/02/19 12:00:53;;;;;;;15.20;4.37;;;9.80;99.90;;;;;;6203066;23;20226;-76
2022/02/19 12:03:26;;;;;;;12.97;4.43;;;9.80;99.90;;;;;;6203759;23;20170;-75
2022/02/19 12:06:15;;;;;;;16.03;4.33;;;9.90;99.90;;;;;;6203545;23;20351;-76
2022/02/19 12:09:18;;;;;;;19.50;4.47;;;9.90;99.90;;;;;;6204729;23;20181;-76
2022/02/19 12:12:04;;;;;;;15.30;3.97;;;9.90;99.90;;;;;;6204893;23;20162;-75
2022/02/19 12:15:01;;;;;;;14.37;3.77;;;9.90;99.90;;;;;;6204152;23;20170;-75
2022/02/19 12:17:44;;;;;;;19.37;4.67;;;9.90;99.90;;;;;;6205094;23;20229;-74
2022/02/19 12:20:24;;;;;;;18.87;4.97;;;9.90;99.90;;;;;;6203531;23;20182;-76
2022/02/19 12:22:52;;;;;;;23.07;5.20;;;9.90;99.90;;;;;;6204671;23;20189;-76
2022/02/19 12:25:19;;;;;;;13.77;4.20;;;9.90;99.90;;;;;;6204506;23;20197;-76
2022/02/19 12:28:17;;;;;;;22.80;4.70;;;9.90;99.90;;;;;;6203726;23;20178;-76
2022/02/19 12:30:45;;;;;;;19.43;4.37;;;9.90;99.90;;;;;;6204091;23;20483;-77
2022/02/19 12:33:13;;;;;;;16.93;4.83;;;9.90;99.90;;;;;;6203894;23;20182;-76
2022/02/19 12:35:42;;;;;;;16.50;3.47;;;9.90;99.90;;;;;;6203507;23;20170;-76
2022/02/19 12:38:11;;;;;;;13.50;3.63;;;9.90;99.90;;;;;;6203851;23;20263;-77
2022/02/19 12:40:38;;;;;;;14.37;3.47;;;9.90;99.90;;;;;;6204057;23;20210;-77
2022/02/19 12:43:05;;;;;;;13.80;3.87;;;9.80;99.90;;;;;;6203834;23;20178;-77
2022/02/19 12:45:35;;;;;;;15.13;4.30;;;9.80;99.90;;;;;;6204222;23;20185;-77
2022/02/19 12:48:02;;;;;;;15.03;4.90;;;9.80;99.90;;;;;;6203727;23;20268;-78
2022/02/19 12:50:30;;;;;;;13.30;3.33;;;9.70;99.90;;;;;;6204187;23;20174;-75
2022/02/19 12:52:57;;;;;;;12.20;2.97;;;9.60;99.90;;;;;;6203841;23;20606;-76
2022/02/19 12:55:24;;;;;;;18.70;4.20;;;9.50;99.90;;;;;;6203856;23;20188;-75
2022/02/19 12:57:52;;;;;;;12.43;3.33;;;9.50;99.90;;;;;;6203793;23;20174;-77
2022/02/19 13:00:21;;;;;;;17.07;4.87;;;9.50;99.90;;;;;;6204190;23;20201;-76
2022/02/19 13:02:55;;;;;;;18.47;3.60;;;9.50;99.90;;;;;;6203851;23;20174;-77
2022/02/19 13:05:23;;;;;;;23.10;5.00;;;9.50;99.90;;;;;;6203816;23;20201;-77
2022/02/19 13:07:52;;;;;;;18.57;3.50;;;9.50;99.90;;;;;;6204036;23;20808;-77
2022/02/19 13:10:23;;;;;;;16.23;3.83;;;9.50;99.90;;;;;;6203089;23;20174;-77
2022/02/19 13:12:50;;;;;;;12.03;3.70;;;9.50;99.90;;;;;;6203926;23;20174;-77